sensor_id;sensor_type;location;lat;lon;timestamp;temperature;humidity
33881;DHT22;20172;47.530;10.256;2023-04-24T00:00:33;10.50;99.90
33881;DHT22;20172;47.530;10.256;2023-04-24T00:03:01;10.50;99.90
33881;DHT22;20172;47.530;10.256;2023-04-24T00:05:29;10.30;99.90
33881;DHT22;20172;47.530;10.256;2023-04-24T00:07:58;10.30;99.90
33881;DHT22;20172;47.530;10.256;2023-04-24T00:10:26;10.40;99.90
33881;DHT22;20172;47.530;10.256;2023-04-24T00:12:53;10.40;99.90
33881;DHT22;20172;47.530;10.256;2023-04-24T00:15:19;10.30;99.90
33881;DHT22;20172;47.530;10.256;2023-04-24T00:17:46;10.20;99.90
33881;DHT22;20172;47.530;10.256;2023-04-24T00:20:12;10.20;99.90
33881;DHT22;20172;47.530;10.256;2023-04-24T00:22:41;10.30;99.90
33881;DHT22;20172;47.530;10.256;2023-04-24T00:25:07;10.20;99.90
33881;DHT22;20172;47.530;10.256;2023-04-24T00:27:34;10.30;99.90
33881;DHT22;20172;47.530;10.256;2023-04-24T00:30:03;10.40;99.90
33881;DHT22;20172;47.530;10.256;2023-04-24T00:32:30;10.30;99.90
33881;DHT22;20172;47.530;10.256;2023-04-24T00:34:59;10.30;99.90
33881;DHT22;20172;47.530;10.256;2023-04-24T00:37:25;10.10;99.90
33881;DHT22;20172;47.530;10.256;2023-04-24T00:39:51;9.90;99.90
33881;DHT22;20172;47.530;10.256;2023-04-24T00:42:17;9.80;99.90
33881;DHT22;20172;47.530;10.256;2023-04-24T00:44:45;9.70;99.90
33881;DHT22;20172;47.530;10.256;2023-04-24T00:47:11;9.70;99.90
33881;DHT22;20172;47.530;10.256;2023-04-24T00:49:38;9.60;99.90
33881;DHT22;20172;47.530;10.256;2023-04-24T00:52:09;9.50;99.90
33881;DHT22;20172;47.530;10.256;2023-04-24T00:54:49;9.40;99.90
33881;DHT22;20172;47.530;10.256;2023-04-24T00:57:15;9.40;99.90
33881;DHT22;20172;47.530;10.256;2023-04-24T00:59:41;9.30;99.90
33881;DHT22;20172;47.530;10.256;2023-04-24T01:02:09;9.40;99.90
33881;DHT22;20172;47.530;10.256;2023-04-24T01:04:36;9.40;99.90
33881;DHT22;20172;47.530;10.256;2023-04-24T01:07:02;9.40;99.90
33881;DHT22;20172;47.530;10.256;2023-04-24T01:09:32;9.60;99.90
33881;DHT22;20172;47.530;10.256;2023-04-24T01:12:00;9.70;99.90
33881;DHT22;20172;47.530;10.256;2023-04-24T01:14:28;9.70;99.90
33881;DHT22;20172;47.530;10.256;2023-04-24T01:17:13;9.60;99.90
33881;DHT22;20172;47.530;10.256;2023-04-24T01:19:39;9.70;99.90
33881;DHT22;20172;47.530;10.256;2023-04-24T01:22:10;9.80;99.90
33881;DHT22;20172;47.530;10.256;2023-04-24T01:24:36;9.70;99.90
33881;DHT22;20172;47.530;10.256;2023-04-24T01:27:02;9.80;99.90
33881;DHT22;20172;47.530;10.256;2023-04-24T01:29:30;9.90;99.90
33881;DHT22;20172;47.530;10.256;2023-04-24T01:32:00;9.70;99.90
33881;DHT22;20172;47.530;10.256;2023-04-24T01:34:34;9.80;99.90
33881;DHT22;20172;47.530;10.256;2023-04-24T01:37:01;9.70;99.90
33881;DHT22;20172;47.530;10.256;2023-04-24T01:39:27;9.80;99.90
33881;DHT22;20172;47.530;10.256;2023-04-24T01:41:55;9.80;99.90
33881;DHT22;20172;47.530;10.256;2023-04-24T01:44:23;9.90;99.90
33881;DHT22;20172;47.530;10.256;2023-04-24T01:46:50;9.90;99.90
33881;DHT22;20172;47.530;10.256;2023-04-24T01:49:15;10.00;99.90
33881;DHT22;20172;47.530;10.256;2023-04-24T01:51:41;10.00;99.90
33881;DHT22;20172;47.530;10.256;2023-04-24T01:54:28;10.00;99.90
33881;DHT22;20172;47.530;10.256;2023-04-24T01:56:54;10.00;99.90
33881;DHT22;20172;47.530;10.256;2023-04-24T01:59:20;10.00;99.90
33881;DHT22;20172;47.530;10.256;2023-04-24T02:01:48;10.00;99.90
33881;DHT22;20172;47.530;10.256;2023-04-24T02:04:14;10.00;99.90
33881;DHT22;20172;47.530;10.256;2023-04-24T02:06:41;10.00;99.90
33881;DHT22;20172;47.530;10.256;2023-04-24T02:09:08;10.10;99.90
33881;DHT22;20172;47.530;10.256;2023-04-24T02:11:55;10.10;99.90
33881;DHT22;20172;47.530;10.256;2023-04-24T02:14:22;10.10;99.90
33881;DHT22;20172;47.530;10.256;2023-04-24T02:16:48;10.00;99.90
33881;DHT22;20172;47.530;10.256;2023-04-24T02:19:28;9.90;99.90
33881;DHT22;20172;47.530;10.256;2023-04-24T02:22:03;9.90;99.90
33881;DHT22;20172;47.530;10.256;2023-04-24T02:24:29;9.90;99.90
33881;DHT22;20172;47.530;10.256;2023-04-24T02:26:55;9.90;99.90
33881;DHT22;20172;47.530;10.256;2023-04-24T02:29:21;9.70;99.90
33881;DHT22;20172;47.530;10.256;2023-04-24T02:31:46;9.70;99.90
33881;DHT22;20172;47.530;10.256;2023-04-24T02:34:12;9.70;99.90
33881;DHT22;20172;47.530;10.256;2023-04-24T02:36:38;9.70;99.90
33881;DHT22;20172;47.530;10.256;2023-04-24T02:39:03;9.60;99.90
33881;DHT22;20172;47.530;10.256;2023-04-24T02:41:29;9.60;99.90
33881;DHT22;20172;47.530;10.256;2023-04-24T02:43:57;9.50;99.90
33881;DHT22;20172;47.530;10.256;2023-04-24T02:46:23;9.60;99.90
33881;DHT22;20172;47.530;10.256;2023-04-24T02:51:52;9.70;99.90
33881;DHT22;20172;47.530;10.256;2023-04-24T02:54:19;9.60;99.90
33881;DHT22;20172;47.530;10.256;2023-04-24T02:56:44;9.60;99.90
33881;DHT22;20172;47.530;10.256;2023-04-24T02:59:10;9.60;99.90
33881;DHT22;20172;47.530;10.256;2023-04-24T03:01:36;9.50;99.90
33881;DHT22;20172;47.530;10.256;2023-04-24T03:04:07;9.50;99.90
33881;DHT22;20172;47.530;10.256;2023-04-24T03:06:32;9.50;99.90
33881;DHT22;20172;47.530;10.256;2023-04-24T03:09:25;9.60;99.90
33881;DHT22;20172;47.530;10.256;2023-04-24T03:12:29;9.70;99.90
33881;DHT22;20172;47.530;10.256;2023-04-24T03:14:57;9.60;99.90
33881;DHT22;20172;47.530;10.256;2023-04-24T03:17:23;9.70;99.90
33881;DHT22;20172;47.530;10.256;2023-04-24T03:19:49;9.70;99.90
33881;DHT22;20172;47.530;10.256;2023-04-24T03:22:15;9.70;99.90
33881;DHT22;20172;47.530;10.256;2023-04-24T03:24:45;9.60;99.90
33881;DHT22;20172;47.530;10.256;2023-04-24T03:27:11;9.60;99.90
33881;DHT22;20172;47.530;10.256;2023-04-24T03:29:36;9.50;99.90
33881;DHT22;20172;47.530;10.256;2023-04-24T03:32:02;9.50;99.90
33881;DHT22;20172;47.530;10.256;2023-04-24T03:34:28;9.50;99.90
33881;DHT22;20172;47.530;10.256;2023-04-24T03:36:54;9.40;99.90
33881;DHT22;20172;47.530;10.256;2023-04-24T03:39:20;9.40;99.90
33881;DHT22;20172;47.530;10.256;2023-04-24T03:41:47;9.20;99.90
33881;DHT22;20172;47.530;10.256;2023-04-24T03:44:12;9.30;99.90
33881;DHT22;20172;47.530;10.256;2023-04-24T03:46:38;9.20;99.90
33881;DHT22;20172;47.530;10.256;2023-04-24T03:49:06;9.20;99.90
33881;DHT22;20172;47.530;10.256;2023-04-24T03:51:32;9.20;99.90
33881;DHT22;20172;47.530;10.256;2023-04-24T03:53:58;9.20;99.90
33881;DHT22;20172;47.530;10.256;2023-04-24T03:56:24;9.10;99.90
33881;DHT22;20172;47.530;10.256;2023-04-24T03:58:50;9.10;99.90
33881;DHT22;20172;47.530;10.256;2023-04-24T04:01:15;9.10;99.90
33881;DHT22;20172;47.530;10.256;2023-04-24T04:03:41;9.10;99.90
33881;DHT22;20172;47.530;10.256;2023-04-24T04:06:07;9.00;99.90
33881;DHT22;20172;47.530;10.256;2023-04-24T04:08:36;9.00;99.90
33881;DHT22;20172;47.530;10.256;2023-04-24T04:11:02;8.90;99.90
33881;DHT22;20172;47.530;10.256;2023-04-24T04:13:28;8.90;99.90
33881;DHT22;20172;47.530;10.256;2023-04-24T04:15:53;9.00;99.90
33881;DHT22;20172;47.530;10.256;2023-04-24T04:18:20;9.00;99.90
33881;DHT22;20172;47.530;10.256;2023-04-24T04:20:45;9.00;99.90
33881;DHT22;20172;47.530;10.256;2023-04-24T04:23:11;8.80;99.90
33881;DHT22;20172;47.530;10.256;2023-04-24T04:25:37;8.80;99.90
33881;DHT22;20172;47.530;10.256;2023-04-24T04:28:03;8.80;99.90
33881;DHT22;20172;47.530;10.256;2023-04-24T04:30:29;8.90;99.90
33881;DHT22;20172;47.530;10.256;2023-04-24T04:33:00;8.90;99.90
33881;DHT22;20172;47.530;10.256;2023-04-24T04:35:28;9.00;99.90
33881;DHT22;20172;47.530;10.256;2023-04-24T04:37:53;9.00;99.90
33881;DHT22;20172;47.530;10.256;2023-04-24T04:40:19;8.90;99.90
33881;DHT22;20172;47.530;10.256;2023-04-24T04:42:45;8.90;99.90
33881;DHT22;20172;47.530;10.256;2023-04-24T04:45:11;8.80;99.90
33881;DHT22;20172;47.530;10.256;2023-04-24T04:47:37;8.90;99.90
33881;DHT22;20172;47.530;10.256;2023-04-24T04:50:03;8.90;99.90
33881;DHT22;20172;47.530;10.256;2023-04-24T04:52:31;9.00;99.90
33881;DHT22;20172;47.530;10.256;2023-04-24T04:54:56;9.00;99.90
33881;DHT22;20172;47.530;10.256;2023-04-24T04:57:22;8.90;99.90
33881;DHT22;20172;47.530;10.256;2023-04-24T04:59:48;8.90;99.90
33881;DHT22;20172;47.530;10.256;2023-04-24T05:02:13;8.90;99.90
33881;DHT22;20172;47.530;10.256;2023-04-24T05:04:39;8.90;99.90
33881;DHT22;20172;47.530;10.256;2023-04-24T05:07:05;8.90;99.90
33881;DHT22;20172;47.530;10.256;2023-04-24T05:09:31;8.90;99.90
33881;DHT22;20172;47.530;10.256;2023-04-24T05:11:57;9.00;99.90
33881;DHT22;20172;47.530;10.256;2023-04-24T05:14:23;9.00;99.90
33881;DHT22;20172;47.530;10.256;2023-04-24T05:16:49;8.90;99.90
33881;DHT22;20172;47.530;10.256;2023-04-24T05:19:14;8.90;99.90
33881;DHT22;20172;47.530;10.256;2023-04-24T05:21:40;8.90;99.90
33881;DHT22;20172;47.530;10.256;2023-04-24T05:24:06;8.90;99.90
33881;DHT22;20172;47.530;10.256;2023-04-24T05:26:32;9.10;99.90
33881;DHT22;20172;47.530;10.256;2023-04-24T05:29:00;8.90;99.90
33881;DHT22;20172;47.530;10.256;2023-04-24T05:31:41;8.90;99.90
33881;DHT22;20172;47.530;10.256;2023-04-24T05:34:06;8.90;99.90
33881;DHT22;20172;47.530;10.256;2023-04-24T05:36:32;8.90;99.90
33881;DHT22;20172;47.530;10.256;2023-04-24T05:38:57;8.90;99.90
33881;DHT22;20172;47.530;10.256;2023-04-24T05:41:23;9.00;99.90
33881;DHT22;20172;47.530;10.256;2023-04-24T05:43:48;9.10;99.90
33881;DHT22;20172;47.530;10.256;2023-04-24T05:46:14;9.00;99.90
33881;DHT22;20172;47.530;10.256;2023-04-24T05:48:40;9.10;99.90
33881;DHT22;20172;47.530;10.256;2023-04-24T05:51:05;9.10;99.90
33881;DHT22;20172;47.530;10.256;2023-04-24T05:53:31;9.30;99.90
33881;DHT22;20172;47.530;10.256;2023-04-24T05:55:56;9.20;99.90
33881;DHT22;20172;47.530;10.256;2023-04-24T05:58:22;9.30;99.90
33881;DHT22;20172;47.530;10.256;2023-04-24T06:00:47;9.30;99.90
33881;DHT22;20172;47.530;10.256;2023-04-24T06:03:13;9.10;99.90
33881;DHT22;20172;47.530;10.256;2023-04-24T06:05:38;9.10;99.90
33881;DHT22;20172;47.530;10.256;2023-04-24T06:08:04;9.00;99.90
33881;DHT22;20172;47.530;10.256;2023-04-24T06:10:29;9.00;99.90
33881;DHT22;20172;47.530;10.256;2023-04-24T06:12:55;9.10;99.90
33881;DHT22;20172;47.530;10.256;2023-04-24T06:15:27;9.20;99.90
33881;DHT22;20172;47.530;10.256;2023-04-24T06:17:53;9.30;99.90
33881;DHT22;20172;47.530;10.256;2023-04-24T06:20:18;9.20;99.90
33881;DHT22;20172;47.530;10.256;2023-04-24T06:22:44;9.30;99.90
33881;DHT22;20172;47.530;10.256;2023-04-24T06:25:09;9.30;99.90
33881;DHT22;20172;47.530;10.256;2023-04-24T06:27:35;9.30;99.90
33881;DHT22;20172;47.530;10.256;2023-04-24T06:30:01;9.30;99.90
33881;DHT22;20172;47.530;10.256;2023-04-24T06:32:26;9.30;99.90
33881;DHT22;20172;47.530;10.256;2023-04-24T06:34:52;9.50;99.90
33881;DHT22;20172;47.530;10.256;2023-04-24T06:37:18;9.50;99.90
33881;DHT22;20172;47.530;10.256;2023-04-24T06:39:44;9.50;99.90
33881;DHT22;20172;47.530;10.256;2023-04-24T06:42:09;9.70;99.90
33881;DHT22;20172;47.530;10.256;2023-04-24T06:44:35;9.80;99.90
33881;DHT22;20172;47.530;10.256;2023-04-24T06:47:09;9.80;99.90
33881;DHT22;20172;47.530;10.256;2023-04-24T06:49:38;9.90;99.90
33881;DHT22;20172;47.530;10.256;2023-04-24T06:52:05;9.90;99.90
33881;DHT22;20172;47.530;10.256;2023-04-24T06:54:31;9.90;99.90
33881;DHT22;20172;47.530;10.256;2023-04-24T06:56:56;9.90;99.90
33881;DHT22;20172;47.530;10.256;2023-04-24T06:59:26;10.00;99.90
33881;DHT22;20172;47.530;10.256;2023-04-24T07:01:51;10.20;99.90
33881;DHT22;20172;47.530;10.256;2023-04-24T07:04:17;10.30;99.90
33881;DHT22;20172;47.530;10.256;2023-04-24T07:06:47;10.40;99.90
33881;DHT22;20172;47.530;10.256;2023-04-24T07:09:12;10.50;99.90
33881;DHT22;20172;47.530;10.256;2023-04-24T07:11:42;10.60;99.90
33881;DHT22;20172;47.530;10.256;2023-04-24T07:14:08;10.60;99.90
33881;DHT22;20172;47.530;10.256;2023-04-24T07:16:34;10.70;99.90
33881;DHT22;20172;47.530;10.256;2023-04-24T07:18:59;10.70;99.90
33881;DHT22;20172;47.530;10.256;2023-04-24T07:21:25;10.80;99.90
33881;DHT22;20172;47.530;10.256;2023-04-24T07:23:51;10.70;99.90
33881;DHT22;20172;47.530;10.256;2023-04-24T07:26:16;10.50;99.90
33881;DHT22;20172;47.530;10.256;2023-04-24T07:28:42;10.40;99.90
33881;DHT22;20172;47.530;10.256;2023-04-24T07:31:08;10.50;99.90
33881;DHT22;20172;47.530;10.256;2023-04-24T07:33:33;10.60;99.90
33881;DHT22;20172;47.530;10.256;2023-04-24T07:35:59;10.80;99.90
33881;DHT22;20172;47.530;10.256;2023-04-24T07:38:25;10.80;99.90
33881;DHT22;20172;47.530;10.256;2023-04-24T07:40:51;10.90;99.90
33881;DHT22;20172;47.530;10.256;2023-04-24T07:43:17;10.90;99.90
33881;DHT22;20172;47.530;10.256;2023-04-24T07:45:42;10.80;99.90
33881;DHT22;20172;47.530;10.256;2023-04-24T07:48:08;10.60;99.90
33881;DHT22;20172;47.530;10.256;2023-04-24T07:50:34;10.60;99.90
33881;DHT22;20172;47.530;10.256;2023-04-24T07:53:00;10.50;99.90
33881;DHT22;20172;47.530;10.256;2023-04-24T07:55:25;10.60;99.90
33881;DHT22;20172;47.530;10.256;2023-04-24T07:57:51;10.60;99.90
33881;DHT22;20172;47.530;10.256;2023-04-24T08:00:16;10.70;99.90
33881;DHT22;20172;47.530;10.256;2023-04-24T08:02:42;10.90;99.90
33881;DHT22;20172;47.530;10.256;2023-04-24T08:05:08;10.90;99.90
33881;DHT22;20172;47.530;10.256;2023-04-24T08:07:33;10.90;99.90
33881;DHT22;20172;47.530;10.256;2023-04-24T08:10:00;11.00;99.90
33881;DHT22;20172;47.530;10.256;2023-04-24T08:12:27;11.00;99.90
33881;DHT22;20172;47.530;10.256;2023-04-24T08:20:36;10.90;99.90
33881;DHT22;20172;47.530;10.256;2023-04-24T08:23:02;10.90;99.90
33881;DHT22;20172;47.530;10.256;2023-04-24T08:25:27;10.80;99.90
33881;DHT22;20172;47.530;10.256;2023-04-24T08:27:53;10.80;99.90
33881;DHT22;20172;47.530;10.256;2023-04-24T08:30:19;10.80;99.90
33881;DHT22;20172;47.530;10.256;2023-04-24T08:32:45;10.90;99.90
33881;DHT22;20172;47.530;10.256;2023-04-24T08:35:11;10.70;99.90
33881;DHT22;20172;47.530;10.256;2023-04-24T08:37:37;10.70;99.90
33881;DHT22;20172;47.530;10.256;2023-04-24T08:40:12;10.60;99.90
33881;DHT22;20172;47.530;10.256;2023-04-24T08:42:57;10.70;99.90
33881;DHT22;20172;47.530;10.256;2023-04-24T08:45:44;10.70;99.90
33881;DHT22;20172;47.530;10.256;2023-04-24T08:48:11;10.70;99.90
33881;DHT22;20172;47.530;10.256;2023-04-24T08:50:44;10.70;99.90
33881;DHT22;20172;47.530;10.256;2023-04-24T08:53:41;10.70;99.90
33881;DHT22;20172;47.530;10.256;2023-04-24T08:56:07;11.20;99.90
33881;DHT22;20172;47.530;10.256;2023-04-24T08:58:32;11.50;99.90
33881;DHT22;20172;47.530;10.256;2023-04-24T09:00:58;11.90;99.90
33881;DHT22;20172;47.530;10.256;2023-04-24T09:03:24;12.30;99.90
33881;DHT22;20172;47.530;10.256;2023-04-24T09:05:51;12.40;99.90
33881;DHT22;20172;47.530;10.256;2023-04-24T09:08:18;12.60;99.90
33881;DHT22;20172;47.530;10.256;2023-04-24T09:10:44;12.60;99.90
33881;DHT22;20172;47.530;10.256;2023-04-24T09:13:10;12.80;99.90
33881;DHT22;20172;47.530;10.256;2023-04-24T09:15:41;13.00;99.90
33881;DHT22;20172;47.530;10.256;2023-04-24T09:18:06;13.20;99.90
33881;DHT22;20172;47.530;10.256;2023-04-24T09:20:32;13.30;99.90
33881;DHT22;20172;47.530;10.256;2023-04-24T09:22:58;13.50;99.90
33881;DHT22;20172;47.530;10.256;2023-04-24T09:25:33;13.50;99.90
33881;DHT22;20172;47.530;10.256;2023-04-24T09:28:02;13.30;99.90
33881;DHT22;20172;47.530;10.256;2023-04-24T09:30:28;13.40;99.90
33881;DHT22;20172;47.530;10.256;2023-04-24T09:33:09;13.60;99.90
33881;DHT22;20172;47.530;10.256;2023-04-24T09:35:34;13.70;99.90
33881;DHT22;20172;47.530;10.256;2023-04-24T09:38:00;13.60;99.90
33881;DHT22;20172;47.530;10.256;2023-04-24T09:40:26;13.30;99.90
33881;DHT22;20172;47.530;10.256;2023-04-24T09:42:52;13.20;99.90
33881;DHT22;20172;47.530;10.256;2023-04-24T09:45:18;13.10;99.90
33881;DHT22;20172;47.530;10.256;2023-04-24T09:47:44;12.70;99.90
33881;DHT22;20172;47.530;10.256;2023-04-24T09:50:13;12.40;99.90
33881;DHT22;20172;47.530;10.256;2023-04-24T09:53:01;12.50;99.90
33881;DHT22;20172;47.530;10.256;2023-04-24T09:55:24;12.40;99.90
33881;DHT22;20172;47.530;10.256;2023-04-24T09:58:00;12.20;99.90
33881;DHT22;20172;47.530;10.256;2023-04-24T10:00:27;12.20;99.90
33881;DHT22;20172;47.530;10.256;2023-04-24T10:02:59;12.20;99.90
33881;DHT22;20172;47.530;10.256;2023-04-24T10:07:57;12.10;99.90
33881;DHT22;20172;47.530;10.256;2023-04-24T10:10:23;12.00;99.90
33881;DHT22;20172;47.530;10.256;2023-04-24T10:12:49;11.70;99.90
33881;DHT22;20172;47.530;10.256;2023-04-24T10:15:16;11.60;99.90
33881;DHT22;20172;47.530;10.256;2023-04-24T10:17:46;11.50;99.90
33881;DHT22;20172;47.530;10.256;2023-04-24T10:20:18;11.30;99.90
33881;DHT22;20172;47.530;10.256;2023-04-24T10:22:44;11.00;99.90
33881;DHT22;20172;47.530;10.256;2023-04-24T10:25:11;10.90;99.90
33881;DHT22;20172;47.530;10.256;2023-04-24T10:27:37;11.20;99.90
33881;DHT22;20172;47.530;10.256;2023-04-24T10:30:03;11.70;99.90
33881;DHT22;20172;47.530;10.256;2023-04-24T10:32:28;12.10;99.90
33881;DHT22;20172;47.530;10.256;2023-04-24T10:34:55;12.20;99.90
33881;DHT22;20172;47.530;10.256;2023-04-24T10:37:21;12.20;99.90
33881;DHT22;20172;47.530;10.256;2023-04-24T10:39:48;12.20;99.90
33881;DHT22;20172;47.530;10.256;2023-04-24T10:42:14;12.30;99.90
33881;DHT22;20172;47.530;10.256;2023-04-24T10:44:40;12.40;99.90
33881;DHT22;20172;47.530;10.256;2023-04-24T10:47:07;12.20;99.90
33881;DHT22;20172;47.530;10.256;2023-04-24T10:49:37;12.30;99.90
33881;DHT22;20172;47.530;10.256;2023-04-24T10:52:03;12.70;99.90
33881;DHT22;20172;47.530;10.256;2023-04-24T10:54:44;12.80;99.90
33881;DHT22;20172;47.530;10.256;2023-04-24T10:59:49;13.20;99.90
33881;DHT22;20172;47.530;10.256;2023-04-24T11:02:15;13.50;99.90
33881;DHT22;20172;47.530;10.256;2023-04-24T11:04:41;13.80;99.90
33881;DHT22;20172;47.530;10.256;2023-04-24T11:07:12;14.20;99.90
33881;DHT22;20172;47.530;10.256;2023-04-24T11:09:38;14.50;99.90
33881;DHT22;20172;47.530;10.256;2023-04-24T11:12:06;14.60;99.90
33881;DHT22;20172;47.530;10.256;2023-04-24T11:20:16;14.80;99.90
33881;DHT22;20172;47.530;10.256;2023-04-24T11:22:41;15.00;99.90
33881;DHT22;20172;47.530;10.256;2023-04-24T11:25:08;15.00;99.90
33881;DHT22;20172;47.530;10.256;2023-04-24T11:27:43;15.00;99.90
33881;DHT22;20172;47.530;10.256;2023-04-24T11:30:10;15.20;99.90
33881;DHT22;20172;47.530;10.256;2023-04-24T11:32:36;15.20;99.90
33881;DHT22;20172;47.530;10.256;2023-04-24T11:35:10;15.20;99.90
33881;DHT22;20172;47.530;10.256;2023-04-24T11:40:04;14.90;99.90
33881;DHT22;20172;47.530;10.256;2023-04-24T11:42:33;14.70;99.90
33881;DHT22;20172;47.530;10.256;2023-04-24T11:44:59;14.50;99.90
33881;DHT22;20172;47.530;10.256;2023-04-24T11:47:31;14.60;99.90
33881;DHT22;20172;47.530;10.256;2023-04-24T11:49:59;14.70;99.90
33881;DHT22;20172;47.530;10.256;2023-04-24T11:52:25;14.80;99.90
33881;DHT22;20172;47.530;10.256;2023-04-24T11:54:51;15.00;99.90
33881;DHT22;20172;47.530;10.256;2023-04-24T11:57:19;15.10;99.90
33881;DHT22;20172;47.530;10.256;2023-04-24T11:59:44;15.20;99.90
33881;DHT22;20172;47.530;10.256;2023-04-24T12:02:19;15.20;99.90
33881;DHT22;20172;47.530;10.256;2023-04-24T12:04:45;15.00;99.90
33881;DHT22;20172;47.530;10.256;2023-04-24T12:07:10;15.20;99.90
33881;DHT22;20172;47.530;10.256;2023-04-24T12:12:11;15.40;99.90
33881;DHT22;20172;47.530;10.256;2023-04-24T12:14:49;15.30;99.90
33881;DHT22;20172;47.530;10.256;2023-04-24T12:17:23;15.10;99.90
33881;DHT22;20172;47.530;10.256;2023-04-24T12:19:49;14.90;99.90
33881;DHT22;20172;47.530;10.256;2023-04-24T12:22:15;14.90;99.90
33881;DHT22;20172;47.530;10.256;2023-04-24T12:27:36;15.00;99.90
33881;DHT22;20172;47.530;10.256;2023-04-24T12:30:03;14.60;99.90
33881;DHT22;20172;47.530;10.256;2023-04-24T12:32:29;14.30;99.90
33881;DHT22;20172;47.530;10.256;2023-04-24T12:34:55;14.10;99.90
33881;DHT22;20172;47.530;10.256;2023-04-24T12:37:24;14.30;99.90
33881;DHT22;20172;47.530;10.256;2023-04-24T12:42:26;15.20;99.90
33881;DHT22;20172;47.530;10.256;2023-04-24T12:45:01;15.10;99.90
33881;DHT22;20172;47.530;10.256;2023-04-24T12:47:27;15.20;99.90
33881;DHT22;20172;47.530;10.256;2023-04-24T12:49:53;15.20;99.90
33881;DHT22;20172;47.530;10.256;2023-04-24T12:52:23;15.10;99.90
33881;DHT22;20172;47.530;10.256;2023-04-24T12:54:50;15.10;99.90
33881;DHT22;20172;47.530;10.256;2023-04-24T12:57:16;15.10;99.90
33881;DHT22;20172;47.530;10.256;2023-04-24T12:59:42;15.10;99.90
33881;DHT22;20172;47.530;10.256;2023-04-24T13:02:07;15.20;99.90
33881;DHT22;20172;47.530;10.256;2023-04-24T13:04:34;15.50;99.90
33881;DHT22;20172;47.530;10.256;2023-04-24T13:07:00;16.00;99.90
33881;DHT22;20172;47.530;10.256;2023-04-24T13:09:25;16.50;99.90
33881;DHT22;20172;47.530;10.256;2023-04-24T13:11:51;16.80;99.90
33881;DHT22;20172;47.530;10.256;2023-04-24T13:14:16;17.10;99.90
33881;DHT22;20172;47.530;10.256;2023-04-24T13:16:42;17.30;99.90
33881;DHT22;20172;47.530;10.256;2023-04-24T13:19:07;17.30;99.90
33881;DHT22;20172;47.530;10.256;2023-04-24T13:21:32;17.40;99.90
33881;DHT22;20172;47.530;10.256;2023-04-24T13:23:58;17.10;99.90
33881;DHT22;20172;47.530;10.256;2023-04-24T13:26:24;17.20;99.90
33881;DHT22;20172;47.530;10.256;2023-04-24T13:28:50;17.60;99.90
33881;DHT22;20172;47.530;10.256;2023-04-24T13:31:15;17.80;99.90
33881;DHT22;20172;47.530;10.256;2023-04-24T13:33:41;17.90;99.90
33881;DHT22;20172;47.530;10.256;2023-04-24T13:36:07;17.70;99.90
33881;DHT22;20172;47.530;10.256;2023-04-24T13:38:32;17.30;99.90
33881;DHT22;20172;47.530;10.256;2023-04-24T13:40:58;16.90;99.90
33881;DHT22;20172;47.530;10.256;2023-04-24T13:43:23;16.40;99.90
33881;DHT22;20172;47.530;10.256;2023-04-24T13:45:49;16.00;99.60
33881;DHT22;20172;47.530;10.256;2023-04-24T13:48:14;15.60;99.90
33881;DHT22;20172;47.530;10.256;2023-04-24T13:50:41;15.30;99.90
33881;DHT22;20172;47.530;10.256;2023-04-24T13:53:06;14.90;99.90
33881;DHT22;20172;47.530;10.256;2023-04-24T13:55:32;14.40;99.90
33881;DHT22;20172;47.530;10.256;2023-04-24T13:57:57;14.20;99.90
33881;DHT22;20172;47.530;10.256;2023-04-24T14:00:23;14.00;99.90
33881;DHT22;20172;47.530;10.256;2023-04-24T14:02:48;13.90;99.90
33881;DHT22;20172;47.530;10.256;2023-04-24T14:05:14;14.00;99.90
33881;DHT22;20172;47.530;10.256;2023-04-24T14:07:40;14.30;99.90
33881;DHT22;20172;47.530;10.256;2023-04-24T14:10:06;15.50;99.90
33881;DHT22;20172;47.530;10.256;2023-04-24T14:12:32;16.60;99.90
33881;DHT22;20172;47.530;10.256;2023-04-24T14:14:58;17.60;99.90
33881;DHT22;20172;47.530;10.256;2023-04-24T14:17:24;18.40;99.90
33881;DHT22;20172;47.530;10.256;2023-04-24T14:19:49;17.60;99.90
33881;DHT22;20172;47.530;10.256;2023-04-24T14:22:17;16.80;99.90
33881;DHT22;20172;47.530;10.256;2023-04-24T14:24:42;16.30;99.90
33881;DHT22;20172;47.530;10.256;2023-04-24T14:27:08;15.90;99.90
33881;DHT22;20172;47.530;10.256;2023-04-24T14:29:33;15.70;99.90
33881;DHT22;20172;47.530;10.256;2023-04-24T14:31:59;15.20;99.90
33881;DHT22;20172;47.530;10.256;2023-04-24T14:34:24;14.50;99.90
33881;DHT22;20172;47.530;10.256;2023-04-24T14:36:50;13.70;99.90
33881;DHT22;20172;47.530;10.256;2023-04-24T14:39:15;13.20;99.90
33881;DHT22;20172;47.530;10.256;2023-04-24T14:41:41;12.80;99.90
33881;DHT22;20172;47.530;10.256;2023-04-24T14:44:07;12.80;99.90
33881;DHT22;20172;47.530;10.256;2023-04-24T14:46:32;13.00;99.90
33881;DHT22;20172;47.530;10.256;2023-04-24T14:48:58;13.60;99.90
33881;DHT22;20172;47.530;10.256;2023-04-24T14:51:24;13.90;99.90
33881;DHT22;20172;47.530;10.256;2023-04-24T14:53:50;13.50;99.90
33881;DHT22;20172;47.530;10.256;2023-04-24T14:56:16;13.30;99.90
33881;DHT22;20172;47.530;10.256;2023-04-24T14:58:41;12.90;99.90
33881;DHT22;20172;47.530;10.256;2023-04-24T15:01:07;12.70;99.90
33881;DHT22;20172;47.530;10.256;2023-04-24T15:03:32;12.40;99.90
33881;DHT22;20172;47.530;10.256;2023-04-24T15:05:58;12.20;99.90
33881;DHT22;20172;47.530;10.256;2023-04-24T15:08:24;12.00;99.90
33881;DHT22;20172;47.530;10.256;2023-04-24T15:13:25;11.90;99.90
33881;DHT22;20172;47.530;10.256;2023-04-24T15:15:51;11.70;99.90
33881;DHT22;20172;47.530;10.256;2023-04-24T15:18:16;11.70;99.90
33881;DHT22;20172;47.530;10.256;2023-04-24T15:20:42;11.60;99.90
33881;DHT22;20172;47.530;10.256;2023-04-24T15:23:08;11.60;99.90
33881;DHT22;20172;47.530;10.256;2023-04-24T15:25:34;11.70;99.90
33881;DHT22;20172;47.530;10.256;2023-04-24T15:27:59;11.60;99.90
33881;DHT22;20172;47.530;10.256;2023-04-24T15:30:25;12.00;99.90
33881;DHT22;20172;47.530;10.256;2023-04-24T15:32:51;12.50;99.90
33881;DHT22;20172;47.530;10.256;2023-04-24T15:35:17;12.70;99.90
33881;DHT22;20172;47.530;10.256;2023-04-24T15:37:43;12.90;99.90
33881;DHT22;20172;47.530;10.256;2023-04-24T15:40:08;12.70;99.90
33881;DHT22;20172;47.530;10.256;2023-04-24T15:42:39;12.60;99.90
33881;DHT22;20172;47.530;10.256;2023-04-24T15:45:05;12.30;99.90
33881;DHT22;20172;47.530;10.256;2023-04-24T15:47:31;12.20;99.90
33881;DHT22;20172;47.530;10.256;2023-04-24T15:49:57;12.20;99.90
33881;DHT22;20172;47.530;10.256;2023-04-24T15:52:25;12.50;99.90
33881;DHT22;20172;47.530;10.256;2023-04-24T15:54:51;12.70;99.90